Time;durP1;ratioP1;P1;durP2;ratioP2;P2;SDS_P1;SDS_P2;PMS_P1;PMS_P2;Temp;Humidity;BMP_temperature;BMP_pressure;BME280_temperature;BME280_humidity;BME280_pressure;Samples;Min_cycle;Max_cycle;Signal;HPM_P1;HPM_P2
2023/06/09 00:01:01;;;;;;;21.67;9.70;;;;;;;20.20;57.65;99619.63;4912612;28;20194;-88
2023/06/09 00:04:02;;;;;;;17.65;10.52;;;;;;;20.22;57.72;99614.88;4906821;28;20039;-89
2023/06/09 00:07:07;;;;;;;14.35;9.20;;;;;;;20.22;57.78;99623.78;4912053;28;20130;-88
2023/06/09 00:09:49;;;;;;;15.35;9.75;;;;;;;20.25;57.83;99615.31;4889925;28;20047;-89
2023/06/09 00:12:52;;;;;;;21.38;10.80;;;;;;;20.12;58.36;99620.63;4926629;28;20441;-88
2023/06/09 00:15:35;;;;;;;18.00;10.20;;;;;;;20.16;58.10;99622.72;4915817;28;20056;-87
2023/06/09 00:18:15;;;;;;;18.60;9.75;;;;;;;20.12;58.24;99623.34;4929528;28;20055;-88
2023/06/09 00:21:09;;;;;;;15.68;10.13;;;;;;;20.06;58.30;99624.97;4941559;28;20061;-89
2023/06/09 00:24:08;;;;;;;18.50;9.75;;;;;;;19.99;58.56;99618.72;4830968;28;20127;-88
2023/06/09 00:26:57;;;;;;;19.33;11.65;;;;;;;20.16;57.92;99611.13;4892319;28;20075;-89
2023/06/09 00:29:29;;;;;;;17.38;10.73;;;;;;;20.11;58.35;99611.72;4917566;28;20047;-89
2023/06/09 00:32:00;;;;;;;22.33;12.02;;;;;;;20.22;58.08;99604.91;4873889;28;20146;-88
2023/06/09 00:34:29;;;;;;;21.45;11.88;;;;;;;20.32;57.97;99610.72;4883326;28;20626;-88
2023/06/09 00:36:58;;;;;;;18.73;12.48;;;;;;;20.36;57.75;99608.47;4900127;28;20507;-89
2023/06/09 00:39:34;;;;;;;19.45;11.20;;;;;;;20.33;57.64;99611.59;4900588;28;20142;-89
2023/06/09 00:42:37;;;;;;;19.88;12.18;;;;;;;20.27;58.41;99615.09;4880681;28;20078;-89
2023/06/09 00:45:26;;;;;;;19.33;11.40;;;;;;;20.30;57.94;99617.38;4882834;28;20059;-89
2023/06/09 00:48:17;;;;;;;21.92;13.07;;;;;;;20.32;57.91;99613.44;4863141;28;20054;-88
2023/06/09 00:54:30;;;;;;;22.60;12.10;;;;;;;20.27;58.49;99615.09;4903384;28;20558;-89
2023/06/09 00:57:03;;;;;;;22.27;12.20;;;;;;;20.23;58.55;99624.63;4901489;28;20156;-88
2023/06/09 00:59:42;;;;;;;17.95;12.18;;;;;;;20.22;58.94;99625.66;4858127;29;20447;-89
2023/06/09 01:02:32;;;;;;;18.23;11.57;;;;;;;20.10;59.33;99623.56;4876376;28;20047;-88
2023/06/09 01:05:20;;;;;;;20.23;12.57;;;;;;;20.14;58.76;99608.63;4836604;28;20797;-88
2023/06/09 01:08:21;;;;;;;18.30;12.07;;;;;;;20.11;59.10;99619.81;4870919;28;20055;-88
2023/06/09 01:11:20;;;;;;;20.20;13.90;;;;;;;20.11;59.02;99614.41;4878883;28;20463;-88
2023/06/09 01:14:22;;;;;;;17.80;11.68;;;;;;;20.06;59.43;99613.38;4884356;28;20406;-88
2023/06/09 01:17:09;;;;;;;21.15;12.38;;;;;;;20.07;59.41;99606.94;4885100;28;20060;-89
2023/06/09 01:20:04;;;;;;;21.50;13.40;;;;;;;20.15;59.01;99613.00;4895178;28;20474;-88
2023/06/09 01:22:57;;;;;;;21.38;12.43;;;;;;;20.12;59.11;99613.41;4891297;28;20131;-88
2023/06/09 01:25:43;;;;;;;19.98;12.98;;;;;;;20.14;59.00;99607.78;4912956;28;20051;-88
2023/06/09 01:28:38;;;;;;;22.08;12.45;;;;;;;20.14;59.00;99610.50;4870575;28;20074;-89
2023/06/09 01:31:27;;;;;;;18.15;11.57;;;;;;;20.17;58.89;99610.94;4884356;28;20050;-88
2023/06/09 01:34:05;;;;;;;21.25;13.30;;;;;;;20.19;58.94;99620.66;4883650;28;20129;-88
2023/06/09 01:37:04;;;;;;;22.15;13.13;;;;;;;20.20;58.69;99609.69;4877407;28;20074;-90
2023/06/09 01:39:59;;;;;;;20.65;13.00;;;;;;;20.14;58.78;99599.72;4828530;28;20050;-89
2023/06/09 01:42:50;;;;;;;23.23;12.85;;;;;;;20.07;58.93;99594.28;4870136;28;20487;-89
2023/06/09 01:45:40;;;;;;;20.55;11.43;;;;;;;19.97;59.64;99604.63;4904322;28;20073;-88
2023/06/09 01:48:34;;;;;;;21.30;12.90;;;;;;;19.95;59.66;99598.63;4888391;28;20055;-88
2023/06/09 01:51:35;;;;;;;19.05;13.38;;;;;;;19.92;59.76;99596.31;4905758;28;20047;-88
2023/06/09 01:54:25;;;;;;;17.63;11.85;;;;;;;19.89;59.87;99596.72;4886986;28;20051;-88
2023/06/09 01:57:40;;;;;;;18.60;11.27;;;;;;;19.89;59.79;99588.66;4872264;28;20373;-89
2023/06/09 02:00:29;;;;;;;16.63;12.00;;;;;;;19.90;59.72;99593.03;4872600;28;20058;-87
2023/06/09 02:03:23;;;;;;;17.58;12.35;;;;;;;19.82;60.28;99602.09;4815990;28;20503;-88
2023/06/09 02:06:20;;;;;;;18.05;11.57;;;;;;;19.82;59.94;99595.88;4884835;28;20407;-87
2023/06/09 02:09:10;;;;;;;17.17;11.73;;;;;;;19.84;59.73;99596.50;4807437;28;20044;-89
2023/06/09 02:12:04;;;;;;;18.45;11.80;;;;;;;19.83;59.99;99609.16;4860557;28;20055;-89
2023/06/09 02:14:50;;;;;;;18.63;10.93;;;;;;;19.81;59.94;99599.59;4844868;28;20055;-89
2023/06/09 02:17:33;;;;;;;18.65;12.07;;;;;;;19.79;59.94;99599.78;4842053;28;20055;-88
2023/06/09 02:20:24;;;;;;;17.90;10.77;;;;;;;19.82;60.00;99590.47;4854612;28;20051;-89
2023/06/09 02:23:04;;;;;;;18.30;10.68;;;;;;;19.79;60.11;99596.28;4844525;28;20054;-88
2023/06/09 02:28:47;;;;;;;18.48;12.43;;;;;;;19.86;59.93;99602.53;4874076;28;20183;-88
2023/06/09 02:31:36;;;;;;;15.55;11.75;;;;;;;19.84;60.09;99599.19;4803436;28;20123;-88
2023/06/09 02:34:10;;;;;;;19.70;12.48;;;;;;;19.85;59.86;99600.88;4880068;28;20047;-88
2023/06/09 02:36:48;;;;;;;18.77;12.65;;;;;;;19.83;59.92;99597.53;4863065;28;20062;-88
2023/06/09 02:39:27;;;;;;;18.38;12.20;;;;;;;19.75;60.58;99603.13;4923681;28;20053;-88
2023/06/09 02:42:22;;;;;;;21.20;12.63;;;;;;;19.75;60.27;99598.56;4829867;28;20075;-88
2023/06/09 02:44:56;;;;;;;19.83;11.90;;;;;;;19.71;60.17;99608.88;4888926;28;20051;-88
2023/06/09 02:47:26;;;;;;;17.85;11.70;;;;;;;19.72;60.17;99596.25;4871034;28;20202;-88
2023/06/09 02:50:04;;;;;;;19.35;12.32;;;;;;;19.74;60.15;99604.94;4911246;28;20443;-89
2023/06/09 02:52:40;;;;;;;17.50;11.55;;;;;;;19.74;60.22;99607.66;4883542;28;20070;-88
2023/06/09 02:55:18;;;;;;;17.25;12.35;;;;;;;19.75;60.03;99598.56;4918054;28;20414;-88
2023/06/09 02:57:48;;;;;;;18.85;11.82;;;;;;;19.71;59.90;99598.09;4915109;28;20126;-88
2023/06/09 03:00:16;;;;;;;17.60;12.02;;;;;;;19.72;60.11;99605.19;4921452;28;20067;-87
2023/06/09 03:02:51;;;;;;;18.23;11.73;;;;;;;19.69;60.31;99599.34;4903115;28;20134;-88
2023/06/09 03:05:25;;;;;;;16.55;11.25;;;;;;;19.64;60.39;99599.94;4898331;28;20047;-88
2023/06/09 03:07:53;;;;;;;23.90;12.82;;;;;;;19.62;60.32;99595.78;4904627;28;20133;-86
2023/06/09 03:10:22;;;;;;;18.92;12.20;;;;;;;19.63;60.24;99609.03;4940931;28;20050;-88
2023/06/09 03:12:49;;;;;;;20.17;11.75;;;;;;;19.60;60.67;99608.59;4956867;28;20245;-88
2023/06/09 03:15:17;;;;;;;15.10;11.13;;;;;;;19.59;60.45;99607.78;4916042;28;20585;-88
2023/06/09 03:17:47;;;;;;;15.95;11.00;;;;;;;19.56;60.46;99602.78;4912316;28;20112;-87
2023/06/09 03:20:16;;;;;;;16.25;11.82;;;;;;;19.59;60.52;99606.94;4943515;28;20441;-87
2023/06/09 03:22:45;;;;;;;16.92;11.10;;;;;;;19.58;60.49;99607.97;4943546;28;20448;-88
2023/06/09 03:25:15;;;;;;;18.15;11.23;;;;;;;19.55;60.45;99609.19;4940043;28;20038;-87
2023/06/09 03:27:43;;;;;;;14.63;11.00;;;;;;;19.55;60.38;99603.81;4907251;28;20111;-88
2023/06/09 03:30:10;;;;;;;15.93;11.07;;;;;;;19.49;60.53;99610.84;4940574;28;20050;-87
2023/06/09 03:32:38;;;;;;;17.25;11.98;;;;;;;19.44;60.80;99609.78;4907640;28;20557;-87
2023/06/09 03:35:05;;;;;;;12.73;9.98;;;;;;;19.41;60.76;99611.00;4901518;28;20055;-88
2023/06/09 03:37:34;;;;;;;18.67;11.43;;;;;;;19.47;60.91;99620.97;4920915;28;20055;-88
2023/06/09 03:40:03;;;;;;;16.05;11.60;;;;;;;19.48;60.80;99616.41;4924642;28;20228;-87
2023/06/09 03:42:31;;;;;;;15.30;11.68;;;;;;;19.45;60.38;99619.50;4965050;28;20110;-88
2023/06/09 03:44:59;;;;;;;13.75;10.40;;;;;;;19.47;60.78;99610.19;4914382;28;20166;-88
2023/06/09 03:47:28;;;;;;;14.32;11.23;;;;;;;19.52;60.94;99609.59;4937973;28;20051;-89
2023/06/09 03:49:55;;;;;;;13.52;10.48;;;;;;;19.61;61.36;99616.47;4908441;28;20043;-87
2023/06/09 03:52:22;;;;;;;15.20;10.07;;;;;;;19.75;61.54;99616.59;4922263;28;20058;-88
2023/06/09 03:54:50;;;;;;;16.38;10.80;;;;;;;19.93;61.82;99614.16;4898508;28;20611;-87
2023/06/09 03:57:17;;;;;;;14.70;10.80;;;;;;;20.34;61.70;99610.53;4929126;28;20098;-88
2023/06/09 03:59:44;;;;;;;14.48;10.88;;;;;;;20.95;60.01;99602.28;4925435;28;20047;-88
2023/06/09 04:02:11;;;;;;;14.50;10.25;;;;;;;21.64;57.51;99610.91;4953257;28;20506;-88
2023/06/09 04:04:38;;;;;;;11.57;9.90;;;;;;;22.16;55.50;99608.16;4926162;28;20172;-88
2023/06/09 04:07:05;;;;;;;11.38;10.20;;;;;;;22.35;53.95;99609.13;4896339;28;20471;-89
2023/06/09 04:09:33;;;;;;;11.55;9.82;;;;;;;22.19;53.57;99615.88;4947299;28;20055;-87
2023/06/09 04:12:00;;;;;;;13.80;9.75;;;;;;;21.95;54.19;99610.13;4926072;28;20056;-87
2023/06/09 04:14:28;;;;;;;11.30;10.10;;;;;;;21.74;54.31;99611.28;4891618;28;20052;-87
2023/06/09 04:16:55;;;;;;;12.10;10.10;;;;;;;21.50;55.18;99620.09;4926349;28;20047;-88
2023/06/09 04:19:23;;;;;;;14.40;10.32;;;;;;;21.31;55.67;99610.97;4925497;28;21488;-87
2023/06/09 04:21:52;;;;;;;13.13;9.25;;;;;;;21.20;55.97;99609.75;4944263;28;20474;-88
2023/06/09 04:24:19;;;;;;;11.90;9.38;;;;;;;21.22;56.02;99610.38;4938371;28;20058;-88
2023/06/09 04:26:48;;;;;;;13.93;9.90;;;;;;;21.20;56.33;99612.44;4931924;28;20058;-87
2023/06/09 04:29:17;;;;;;;10.77;8.68;;;;;;;21.16;56.24;99612.03;4903204;28;20067;-87
2023/06/09 04:31:45;;;;;;;11.65;8.88;;;;;;;21.09;56.25;99615.78;4914379;28;20050;-88
2023/06/09 04:34:12;;;;;;;13.40;9.05;;;;;;;21.12;56.16;99612.69;4925813;28;20126;-88
2023/06/09 04:36:45;;;;;;;11.52;8.93;;;;;;;21.14;56.37;99613.28;4927144;28;20057;-88
2023/06/09 04:39:13;;;;;;;12.35;9.32;;;;;;;21.16;56.41;99612.03;4936388;28;20450;-87
2023/06/09 04:41:42;;;;;;;12.70;9.25;;;;;;;21.19;56.13;99618.88;4941507;28;20047;-88
2023/06/09 04:44:09;;;;;;;11.45;9.32;;;;;;;21.18;55.65;99607.25;4945886;28;20098;-88
2023/06/09 04:46:41;;;;;;;11.27;9.20;;;;;;;21.00;56.46;99605.19;4929587;28;20046;-88
2023/06/09 04:49:12;;;;;;;21.60;10.33;;;;;;;20.94;56.08;99618.69;4928639;28;20102;-88
2023/06/09 04:51:48;;;;;;;12.98;9.23;;;;;;;20.91;56.52;99611.00;4938745;28;20043;-88
2023/06/09 04:54:28;;;;;;;12.20;9.48;;;;;;;20.77;56.49;99608.31;4932374;28;20051;-88
2023/06/09 04:57:01;;;;;;;13.80;9.32;;;;;;;20.73;57.11;99615.16;4926882;28;20058;-88
2023/06/09 04:59:30;;;;;;;10.57;9.48;;;;;;;20.65;57.19;99609.16;4940530;28;20520;-87
2023/06/09 05:01:57;;;;;;;15.55;9.88;;;;;;;20.57;57.35;99616.41;4944199;28;20051;-88
2023/06/09 05:04:26;;;;;;;13.25;9.15;;;;;;;20.53;57.26;99617.84;4913876;28;20118;-88
2023/06/09 05:06:55;;;;;;;16.67;8.65;;;;;;;20.51;57.25;99619.09;4952597;28;20062;-89
2023/06/09 05:09:22;;;;;;;11.32;8.65;;;;;;;20.53;57.76;99630.47;4948388;28;20043;-87
2023/06/09 05:11:49;;;;;;;16.88;10.23;;;;;;;20.40;57.79;99617.78;4963256;28;20058;-87
2023/06/09 05:14:16;;;;;;;10.50;9.40;;;;;;;20.33;58.16;99625.06;4957067;28;20078;-88
2023/06/09 05:16:45;;;;;;;14.70;9.93;;;;;;;20.34;58.42;99629.41;4925357;28;20051;-87
2023/06/09 05:19:13;;;;;;;11.43;9.85;;;;;;;20.27;58.27;99625.88;4928347;28;20047;-88
2023/06/09 05:21:41;;;;;;;11.13;9.25;;;;;;;20.24;58.42;99621.72;4940287;28;20042;-86
2023/06/09 05:24:08;;;;;;;13.00;9.88;;;;;;;20.27;58.58;99626.69;4933641;28;20044;-87
2023/06/09 05:26:35;;;;;;;12.82;9.13;;;;;;;20.26;59.17;99626.91;4915523;28;20051;-87
2023/06/09 05:29:02;;;;;;;13.52;9.68;;;;;;;20.24;59.14;99632.50;4946553;28;20051;-88
2023/06/09 05:31:31;;;;;;;11.65;9.73;;;;;;;20.26;59.03;99633.13;4949259;28;20125;-88
2023/06/09 05:34:00;;;;;;;10.35;9.35;;;;;;;20.26;58.99;99630.44;4952933;28;20542;-88
2023/06/09 05:36:27;;;;;;;12.85;9.70;;;;;;;20.33;59.00;99631.28;4960667;28;20130;-88
2023/06/09 05:38:56;;;;;;;15.77;9.82;;;;;;;20.33;59.00;99628.59;4952776;28;20035;-88
2023/06/09 05:41:23;;;;;;;11.40;9.52;;;;;;;20.34;59.12;99632.13;4913479;28;20043;-88
2023/06/09 05:43:51;;;;;;;13.02;9.75;;;;;;;20.34;59.14;99637.50;4944832;28;20071;-84
2023/06/09 05:46:19;;;;;;;10.25;9.13;;;;;;;20.39;59.30;99640.41;4925541;28;20054;-88
2023/06/09 05:48:46;;;;;;;11.88;9.45;;;;;;;20.37;59.37;99631.69;4944396;28;20067;-88
2023/06/09 05:51:13;;;;;;;12.15;9.35;;;;;;;20.35;59.47;99642.72;4947498;28;20432;-87
2023/06/09 05:53:40;;;;;;;10.82;9.20;;;;;;;20.39;59.92;99641.25;4968340;28;20042;-88
2023/06/09 05:56:06;;;;;;;12.95;8.77;;;;;;;20.43;59.77;99646.22;4899716;28;20475;-88
2023/06/09 05:58:34;;;;;;;11.90;9.02;;;;;;;20.51;60.20;99643.34;4929457;28;20062;-86
2023/06/09 06:01:03;;;;;;;13.15;9.27;;;;;;;20.51;60.27;99654.16;4897793;28;20043;-88
2023/06/09 06:03:32;;;;;;;12.73;9.40;;;;;;;20.45;60.10;99657.66;4907208;28;20055;-88
2023/06/09 06:06:00;;;;;;;11.68;9.18;;;;;;;20.41;60.09;99648.31;4912053;28;20047;-87
2023/06/09 06:08:27;;;;;;;11.32;9.63;;;;;;;20.39;60.37;99646.63;4927694;28;20521;-88
2023/06/09 06:10:54;;;;;;;15.23;10.43;;;;;;;20.41;60.44;99637.53;4940330;28;20039;-87
2023/06/09 06:13:20;;;;;;;12.00;9.63;;;;;;;20.46;60.89;99651.22;4955344;28;20533;-89
2023/06/09 06:15:47;;;;;;;14.82;9.85;;;;;;;20.39;60.76;99656.59;4949477;28;20046;-88
2023/06/09 06:18:14;;;;;;;10.90;9.30;;;;;;;20.33;60.39;99646.63;4931477;28;20062;-87
2023/06/09 06:20:41;;;;;;;13.63;9.45;;;;;;;20.35;60.70;99640.00;4929069;28;20051;-88
2023/06/09 06:23:08;;;;;;;11.68;9.00;;;;;;;20.38;60.78;99646.84;4964027;28;20086;-89
2023/06/09 06:25:41;;;;;;;11.52;8.90;;;;;;;20.39;61.09;99648.50;4929486;28;20463;-88
2023/06/09 06:28:09;;;;;;;9.93;8.98;;;;;;;20.47;61.38;99652.88;4947740;28;20067;-88
2023/06/09 06:30:40;;;;;;;13.70;8.43;;;;;;;20.50;61.27;99658.69;4926524;28;20090;-87
2023/06/09 06:33:07;;;;;;;12.57;9.10;;;;;;;20.52;61.02;99643.13;4927950;28;20062;-88
2023/06/09 06:35:34;;;;;;;11.95;8.45;;;;;;;20.65;60.93;99641.53;4938390;28;20106;-88
2023/06/09 06:38:01;;;;;;;9.85;8.90;;;;;;;20.59;61.49;99640.50;4940576;28;20043;-89
2023/06/09 06:40:29;;;;;;;12.27;8.05;;;;;;;20.54;61.32;99648.34;4921494;28;20066;-87
2023/06/09 06:42:56;;;;;;;13.48;8.63;;;;;;;20.60;61.58;99652.94;4934972;28;20052;-86
2023/06/09 06:45:35;;;;;;;10.82;7.78;;;;;;;20.56;61.27;99641.72;4925244;28;20109;-85
2023/06/09 06:48:02;;;;;;;9.27;8.27;;;;;;;20.67;61.14;99644.84;4909905;28;20058;-86
2023/06/09 06:50:29;;;;;;;9.15;8.18;;;;;;;20.71;60.96;99635.28;4913599;28;20063;-86
2023/06/09 06:52:56;;;;;;;8.00;7.03;;;;;;;20.73;60.86;99644.00;4932919;28;20048;-87
2023/06/09 06:55:23;;;;;;;9.40;7.82;;;;;;;20.79;60.59;99640.50;4921773;28;20043;-88
2023/06/09 06:57:50;;;;;;;10.60;8.80;;;;;;;20.84;60.40;99638.03;4941902;28;20048;-88
2023/06/09 07:00:18;;;;;;;9.43;8.52;;;;;;;20.89;60.54;99645.47;4927928;28;20756;-88
2023/06/09 07:02:46;;;;;;;8.95;7.32;;;;;;;20.92;60.30;99650.47;4922596;28;20058;-87
2023/06/09 07:05:15;;;;;;;8.77;7.88;;;;;;;21.02;60.65;99650.88;4940760;28;20113;-88
2023/06/09 07:07:43;;;;;;;7.60;6.90;;;;;;;21.05;60.69;99655.03;4958439;28;20061;-88
2023/06/09 07:10:10;;;;;;;8.98;6.93;;;;;;;21.02;60.15;99649.00;4930452;28;20047;-88
2023/06/09 07:12:38;;;;;;;10.70;7.72;;;;;;;21.02;60.02;99643.63;4943483;28;20094;-88
2023/06/09 07:15:05;;;;;;;7.70;6.97;;;;;;;21.07;59.83;99647.56;4983653;28;20046;-87
2023/06/09 07:17:32;;;;;;;7.00;6.28;;;;;;;21.13;59.93;99646.72;4953152;28;20062;-87
2023/06/09 07:20:00;;;;;;;8.95;7.60;;;;;;;21.21;60.46;99647.31;4960543;28;20056;-88
2023/06/09 07:22:27;;;;;;;8.07;7.07;;;;;;;21.28;59.84;99646.50;4953628;28;20049;-87
2023/06/09 07:24:54;;;;;;;9.23;7.80;;;;;;;21.31;59.82;99652.31;4954130;28;20116;-86
2023/06/09 07:27:21;;;;;;;7.47;6.78;;;;;;;21.34;59.82;99643.78;4950187;28;20082;-89
2023/06/09 07:29:48;;;;;;;8.07;6.35;;;;;;;21.35;59.64;99647.34;4947217;28;20590;-87
2023/06/09 07:32:16;;;;;;;7.25;5.90;;;;;;;21.41;60.04;99654.59;4936562;28;20059;-88
2023/06/09 07:34:45;;;;;;;7.32;6.63;;;;;;;21.43;59.63;99647.13;4962038;28;20039;-88
2023/06/09 07:37:12;;;;;;;7.95;6.50;;;;;;;21.44;60.10;99651.47;4930063;28;20055;-88
2023/06/09 07:39:39;;;;;;;6.22;5.65;;;;;;;21.50;59.70;99637.16;4939874;28;20052;-89
2023/06/09 07:42:06;;;;;;;7.45;6.30;;;;;;;21.58;59.56;99645.00;4937991;28;20234;-88
2023/06/09 07:44:34;;;;;;;7.95;6.05;;;;;;;21.58;59.56;99653.13;4931028;28;20056;-88
2023/06/09 07:47:01;;;;;;;6.60;5.75;;;;;;;21.59;59.76;99648.53;4922890;28;20044;-88
2023/06/09 07:49:28;;;;;;;6.50;5.80;;;;;;;21.62;59.26;99645.41;4965084;28;20074;-89
2023/06/09 07:51:56;;;;;;;7.03;6.03;;;;;;;21.64;59.38;99649.56;4955925;28;20049;-88
2023/06/09 07:54:23;;;;;;;6.50;5.90;;;;;;;21.66;59.66;99650.19;4920724;28;20058;-87
2023/06/09 07:56:50;;;;;;;6.63;5.82;;;;;;;21.63;59.45;99653.31;4934982;28;20054;-89
2023/06/09 07:59:18;;;;;;;7.93;5.40;;;;;;;21.70;59.48;99639.75;4944606;28;20727;-88
2023/06/09 08:01:45;;;;;;;10.45;5.53;;;;;;;21.75;59.61;99639.13;4949945;28;20387;-88
2023/06/09 08:04:12;;;;;;;5.60;5.07;;;;;;;21.82;59.43;99637.22;4945964;28;20124;-88
2023/06/09 08:06:40;;;;;;;6.25;4.88;;;;;;;21.83;58.88;99633.47;4949604;28;20493;-87
2023/06/09 08:09:07;;;;;;;5.57;5.07;;;;;;;21.88;59.46;99641.81;4946808;28;20071;-87
2023/06/09 08:11:35;;;;;;;5.70;5.20;;;;;;;21.92;59.22;99645.72;4900097;28;20134;-88
2023/06/09 08:14:02;;;;;;;4.90;4.50;;;;;;;21.94;58.89;99635.53;4944868;28;20406;-89
2023/06/09 08:16:30;;;;;;;5.10;4.40;;;;;;;21.98;58.60;99639.47;4941100;28;20055;-89
2023/06/09 08:18:57;;;;;;;5.50;4.53;;;;;;;22.00;58.72;99628.44;4917714;28;20066;-89
2023/06/09 08:21:24;;;;;;;5.68;5.07;;;;;;;22.02;58.27;99639.84;4938482;28;20134;-88
2023/06/09 08:23:52;;;;;;;4.47;3.83;;;;;;;22.07;57.82;99646.28;4925535;28;20499;-89
2023/06/09 08:26:19;;;;;;;5.32;4.82;;;;;;;22.12;57.23;99642.94;4942847;28;20062;-88
2023/06/09 08:28:46;;;;;;;5.80;5.28;;;;;;;22.14;57.17;99631.91;4923737;28;20340;-89
2023/06/09 08:31:13;;;;;;;7.90;5.40;;;;;;;22.16;57.32;99630.66;4940032;28;20126;-88
2023/06/09 08:33:39;;;;;;;6.05;5.10;;;;;;;22.20;57.95;99634.59;4924927;28;20048;-87
2023/06/09 08:36:07;;;;;;;6.57;5.90;;;;;;;22.23;58.11;99627.91;4960221;28;20054;-88
2023/06/09 08:38:35;;;;;;;9.75;5.97;;;;;;;22.22;57.73;99629.81;4961592;28;20058;-89
2023/06/09 08:41:08;;;;;;;5.13;4.65;;;;;;;22.26;57.95;99625.63;4942560;28;20058;-88
2023/06/09 08:43:34;;;;;;;;;;;;;;;22.10;57.67;99624.22;4916547;28;20054;-89
2023/06/09 08:46:04;;;;;;;10.02;5.10;;;;;;;22.28;57.53;99618.09;4925308;28;20350;-89
2023/06/09 08:48:34;;;;;;;5.00;4.60;;;;;;;22.31;56.86;99627.66;4924791;28;20495;-87
2023/06/09 08:51:04;;;;;;;8.43;5.63;;;;;;;22.29;56.30;99617.06;4890257;28;20133;-88
2023/06/09 08:53:31;;;;;;;5.85;5.25;;;;;;;22.28;56.71;99614.56;4933574;28;20435;-89
2023/06/09 08:55:59;;;;;;;7.75;5.18;;;;;;;22.32;55.86;99615.81;4927628;28;20051;-89
2023/06/09 08:58:26;;;;;;;6.55;5.55;;;;;;;22.33;56.02;99610.16;4950703;28;20043;-88
2023/06/09 09:00:53;;;;;;;6.53;5.70;;;;;;;22.34;55.98;99611.00;4954826;28;20062;-88
2023/06/09 09:03:20;;;;;;;6.63;5.15;;;;;;;22.36;55.94;99613.47;4917601;28;20638;-87
2023/06/09 09:05:47;;;;;;;5.82;4.90;;;;;;;22.37;56.09;99604.34;4923308;28;20090;-89
2023/06/09 09:08:14;;;;;;;6.43;5.82;;;;;;;22.42;55.85;99608.03;4945081;28;20152;-88
2023/06/09 09:10:42;;;;;;;10.40;5.30;;;;;;;22.48;55.57;99609.03;4924122;28;20150;-89
2023/06/09 09:13:12;;;;;;;6.53;5.43;;;;;;;22.48;55.03;99607.16;4929089;28;20051;-88
2023/06/09 09:15:47;;;;;;;8.20;5.20;;;;;;;22.48;55.11;99609.03;4921494;28;20114;-90
2023/06/09 09:18:16;;;;;;;7.15;5.60;;;;;;;22.53;55.55;99596.50;4941120;28;20055;-89
2023/06/09 09:20:43;;;;;;;7.15;5.57;;;;;;;22.61;55.37;99597.28;4919224;28;20406;-89
2023/06/09 09:23:10;;;;;;;6.47;5.10;;;;;;;22.64;54.83;99602.25;4911009;28;20039;-88
2023/06/09 09:25:37;;;;;;;5.63;5.13;;;;;;;22.66;55.15;99600.97;4905599;28;20078;-89
2023/06/09 09:28:06;;;;;;;5.90;5.25;;;;;;;22.68;55.07;99603.47;4922989;28;20415;-89
2023/06/09 09:30:49;;;;;;;7.00;4.90;;;;;;;22.65;54.41;99601.22;4921572;28;20043;-89
2023/06/09 09:33:26;;;;;;;5.28;4.35;;;;;;;22.69;53.62;99621.38;4907767;28;20541;-89
2023/06/09 09:35:55;;;;;;;4.93;4.32;;;;;;;22.76;52.95;99620.25;4910715;28;20055;-89
2023/06/09 09:38:24;;;;;;;4.70;4.18;;;;;;;22.79;49.53;99608.16;4912332;28;20050;-88
2023/06/09 09:40:53;;;;;;;7.72;4.57;;;;;;;22.79;49.49;99607.34;4914331;28;20058;-89
2023/06/09 09:43:29;;;;;;;6.53;4.10;;;;;;;22.73;48.03;99598.22;4909766;28;20053;-88
2023/06/09 09:45:59;;;;;;;6.57;4.60;;;;;;;22.80;50.36;99596.31;4931403;28;20101;-89
2023/06/09 09:48:26;;;;;;;5.03;4.55;;;;;;;22.84;51.08;99589.38;4939423;28;20047;-87
2023/06/09 09:50:57;;;;;;;4.55;3.95;;;;;;;22.90;51.38;99598.50;4943907;28;20110;-88
2023/06/09 09:53:25;;;;;;;4.88;4.47;;;;;;;22.92;50.78;99599.94;4927357;28;20308;-88
2023/06/09 09:55:54;;;;;;;5.30;4.22;;;;;;;22.92;50.97;99591.81;4925259;28;20043;-90
2023/06/09 09:58:30;;;;;;;5.38;4.28;;;;;;;22.91;50.55;99583.91;4926729;28;20147;-88
2023/06/09 10:00:59;;;;;;;5.10;4.28;;;;;;;22.97;50.51;99580.34;4924809;28;20106;-88
2023/06/09 10:03:57;;;;;;;4.70;4.18;;;;;;;23.02;50.57;99582.38;4922650;28;20428;-89
2023/06/09 10:06:28;;;;;;;5.43;4.60;;;;;;;23.06;50.28;99581.72;4935952;28;20130;-88
2023/06/09 10:08:55;;;;;;;6.40;4.88;;;;;;;23.09;50.70;99583.16;4931095;28;20052;-89
2023/06/09 10:11:26;;;;;;;6.13;4.68;;;;;;;23.10;50.01;99580.22;4925914;28;20515;-89
2023/06/09 10:13:53;;;;;;;5.15;4.65;;;;;;;23.12;50.20;99575.41;4929267;28;20101;-84
2023/06/09 10:16:21;;;;;;;6.97;4.43;;;;;;;23.13;50.41;99576.25;4907757;28;20047;-87
2023/06/09 10:18:48;;;;;;;5.05;4.55;;;;;;;23.18;50.59;99584.53;4934184;28;20055;-88
2023/06/09 10:21:15;;;;;;;5.95;4.03;;;;;;;23.18;50.10;99568.28;4918908;28;20106;-88
2023/06/09 10:23:42;;;;;;;5.25;4.43;;;;;;;23.19;50.05;99575.34;4921316;28;20047;-88
2023/06/09 10:26:10;;;;;;;8.88;4.93;;;;;;;23.22;50.24;99571.34;4927029;28;20061;-86
2023/06/09 10:28:37;;;;;;;6.22;4.53;;;;;;;23.25;50.29;99569.00;4932035;28;20074;-87
2023/06/09 10:31:11;;;;;;;5.40;4.90;;;;;;;23.28;49.75;99565.88;4935515;28;20051;-87
2023/06/09 10:33:41;;;;;;;9.27;4.55;;;;;;;23.31;49.92;99568.13;4911353;28;20542;-87
2023/06/09 10:36:09;;;;;;;4.80;4.40;;;;;;;23.38;49.16;99562.63;4940811;28;20042;-87
2023/06/09 10:38:41;;;;;;;4.60;4.10;;;;;;;23.35;49.54;99563.06;4916165;28;20055;-88
2023/06/09 10:41:37;;;;;;;7.65;4.43;;;;;;;23.32;49.16;99569.78;4921223;28;20073;-87
2023/06/09 10:44:39;;;;;;;6.28;4.68;;;;;;;23.32;49.49;99553.50;4914583;28;20086;-86
2023/06/09 10:47:06;;;;;;;7.93;5.38;;;;;;;23.42;49.64;99561.13;4934851;28;20079;-88
2023/06/09 10:49:38;;;;;;;8.10;4.72;;;;;;;23.49;49.07;99542.91;4915829;28;20051;-88
2023/06/09 10:52:10;;;;;;;6.75;5.18;;;;;;;23.48;49.39;99543.13;4942370;28;20552;-89
2023/06/09 10:54:36;;;;;;;6.68;4.75;;;;;;;23.48;49.34;99541.22;4936306;28;20325;-89
2023/06/09 10:57:06;;;;;;;6.00;4.50;;;;;;;23.53;49.23;99544.09;4917818;28;20044;-87
2023/06/09 10:59:36;;;;;;;6.28;4.45;;;;;;;23.55;48.94;99554.72;4932763;28;20044;-87
2023/06/09 11:02:08;;;;;;;5.22;4.72;;;;;;;23.56;47.38;99545.50;4921338;28;20462;-87
2023/06/09 11:04:38;;;;;;;7.80;5.20;;;;;;;23.54;48.49;99547.66;4921541;28;20251;-87
2023/06/09 11:07:09;;;;;;;5.53;4.72;;;;;;;23.51;49.00;99545.38;4943899;28;20070;-88
2023/06/09 11:09:36;;;;;;;6.95;4.68;;;;;;;23.50;48.70;99532.88;4963031;28;20047;-87
2023/06/09 11:12:04;;;;;;;6.22;4.65;;;;;;;23.52;48.04;99547.03;4938717;28;20090;-88
2023/06/09 11:14:46;;;;;;;6.70;4.40;;;;;;;23.45;47.97;99536.28;4933987;28;20031;-87
2023/06/09 11:17:25;;;;;;;4.70;4.25;;;;;;;23.52;48.19;99547.88;4952852;28;20581;-88
2023/06/09 11:20:10;;;;;;;7.72;5.20;;;;;;;23.54;47.89;99548.47;4933584;28;20046;-87
2023/06/09 11:22:41;;;;;;;7.53;4.55;;;;;;;23.66;48.14;99551.25;4940079;28;20058;-88
2023/06/09 11:25:18;;;;;;;6.43;4.75;;;;;;;23.68;47.44;99529.31;4931774;28;20402;-88
2023/06/09 11:28:09;;;;;;;5.75;4.18;;;;;;;23.66;47.34;99532.28;4928930;28;20058;-87
2023/06/09 11:30:59;;;;;;;6.18;4.78;;;;;;;23.74;47.64;99531.97;4942535;28;20059;-87
2023/06/09 11:33:48;;;;;;;7.20;5.70;;;;;;;23.79;47.29;99517.75;4933171;28;20059;-87
2023/06/09 11:36:17;;;;;;;8.65;5.43;;;;;;;23.90;47.17;99514.25;4937343;28;20098;-87
2023/06/09 11:38:45;;;;;;;9.48;5.00;;;;;;;23.97;46.40;99508.72;4920903;28;20051;-87
2023/06/09 11:41:13;;;;;;;7.63;4.88;;;;;;;24.01;46.31;99510.72;4925636;28;20051;-87
2023/06/09 11:43:48;;;;;;;4.85;4.45;;;;;;;24.02;46.12;99511.56;4945719;28;20059;-88
2023/06/09 11:46:16;;;;;;;4.93;4.35;;;;;;;24.12;46.31;99508.28;4939326;28;20056;-87
2023/06/09 11:49:00;;;;;;;5.78;5.18;;;;;;;24.08;46.07;99512.53;4924692;28;20039;-86
2023/06/09 11:51:27;;;;;;;7.05;4.90;;;;;;;24.15;45.95;99505.94;4916136;28;20054;-87
2023/06/09 11:53:54;;;;;;;5.88;4.60;;;;;;;24.19;45.60;99509.00;4915619;28;20052;-87
2023/06/09 11:56:21;;;;;;;5.95;4.70;;;;;;;24.23;45.99;99510.19;4921480;28;20506;-87
2023/06/09 11:58:52;;;;;;;5.97;4.75;;;;;;;24.22;45.44;99514.81;4912052;28;20111;-88
2023/06/09 12:01:20;;;;;;;5.35;4.85;;;;;;;24.25;45.39;99500.75;4925826;28;20054;-85